Terminal Aerodrome Forecast
Issued by NWS

Home | Current Version | Previous Version | Text Only | Print | Product List | Glossary On
Versions: 1 2 3 4 5 6 7 8 9 10 11 12 13 14 15 16 17 18 19 20
760
FTUS44 KMAF 091732
TAFHOB
TAF
KHOB 091732Z 0918/1018 19008KT 5SM BR OVC006
     FM092000 16008KT P6SM SCT250
     FM101000 18004KT 3SM BR OVC008
     FM101600 22005KT P6SM FEW250=

USA.gov is the U.S. government's official web portal to all federal, state and local government web resources and services.